Terminal Aerodrome Forecast
Issued by NWS

Home | Current Version | Previous Version | Text Only | Print | Product List | Glossary On
Versions: 1 2 3 4 5 6 7 8 9 10 11 12 13 14 15 16 17 18 19 20 21 22 23 24 25 26 27 28 29 30 31 32
000
FTUS46 KOTX 221724
TAFSFF
TAF
KSFF 221724Z 2218/2318 09003KT P6SM SCT050 BKN070 BKN150
     FM222200 07006KT P6SM -RA OVC040
     FM230100 11004KT 6SM -RA BR SCT012 OVC025
     FM230300 VRB05KT 4SM -RASN BR OVC012
     FM230600 21005KT P6SM OVC008
     FM230900 23002KT 4SM BR OVC008
     FM231600 14002KT 6SM BR BKN008 BKN012=

USA.gov is the U.S. government's official web portal to all federal, state and local government web resources and services.